sensor_id;sensor_type;location;lat;lon;timestamp;pressure;altitude;pressure_sealevel;temperature
75431;BMP280;64127;51.488;5.462;2024-03-08T00:00:57;101521.47;;;8.62
75431;BMP280;64127;51.488;5.462;2024-03-08T00:03:29;101547.78;;;8.80
75431;BMP280;64127;51.488;5.462;2024-03-08T00:06:03;101539.13;;;8.81
75431;BMP280;64127;51.488;5.462;2024-03-08T00:08:36;101540.56;;;8.76
75431;BMP280;64127;51.488;5.462;2024-03-08T00:11:08;101536.75;;;8.71
75431;BMP280;64127;51.488;5.462;2024-03-08T00:13:40;101540.00;;;8.66
75431;BMP280;64127;51.488;5.462;2024-03-08T00:16:13;101533.91;;;8.66
75431;BMP280;64127;51.488;5.462;2024-03-08T00:18:46;101535.50;;;8.64
75431;BMP280;64127;51.488;5.462;2024-03-08T00:21:18;101536.22;;;8.61
75431;BMP280;64127;51.488;5.462;2024-03-08T00:23:50;101537.88;;;8.59
75431;BMP280;64127;51.488;5.462;2024-03-08T00:26:22;101532.41;;;8.56
75431;BMP280;64127;51.488;5.462;2024-03-08T00:28:54;101523.44;;;8.51
75431;BMP280;64127;51.488;5.462;2024-03-08T00:31:27;101532.84;;;8.49
75431;BMP280;64127;51.488;5.462;2024-03-08T00:33:59;101531.16;;;8.50
75431;BMP280;64127;51.488;5.462;2024-03-08T00:36:32;101526.84;;;8.50
75431;BMP280;64127;51.488;5.462;2024-03-08T00:39:04;101523.25;;;8.48
75431;BMP280;64127;51.488;5.462;2024-03-08T00:41:39;101513.41;;;8.44
75431;BMP280;64127;51.488;5.462;2024-03-08T00:44:11;101487.84;;;8.26
75431;BMP280;64127;51.488;5.462;2024-03-08T00:46:43;101522.88;;;8.42
75431;BMP280;64127;51.488;5.462;2024-03-08T00:49:15;101521.06;;;8.41
75431;BMP280;64127;51.488;5.462;2024-03-08T00:51:48;101511.13;;;8.36
75431;BMP280;64127;51.488;5.462;2024-03-08T00:54:20;101509.06;;;8.30
75431;BMP280;64127;51.488;5.462;2024-03-08T00:56:53;101508.09;;;8.28
75431;BMP280;64127;51.488;5.462;2024-03-08T00:59:25;101497.44;;;8.25
75431;BMP280;64127;51.488;5.462;2024-03-08T01:01:57;101500.53;;;8.20
75431;BMP280;64127;51.488;5.462;2024-03-08T01:04:31;101493.63;;;8.20
75431;BMP280;64127;51.488;5.462;2024-03-08T01:07:03;101459.38;;;8.01
75431;BMP280;64127;51.488;5.462;2024-03-08T01:09:35;101487.59;;;8.21
75431;BMP280;64127;51.488;5.462;2024-03-08T01:12:08;101489.31;;;8.21
75431;BMP280;64127;51.488;5.462;2024-03-08T01:14:40;101486.56;;;8.19
75431;BMP280;64127;51.488;5.462;2024-03-08T01:17:12;101484.59;;;8.15
75431;BMP280;64127;51.488;5.462;2024-03-08T01:19:45;101479.19;;;8.12
75431;BMP280;64127;51.488;5.462;2024-03-08T01:22:17;101483.59;;;8.13
75431;BMP280;64127;51.488;5.462;2024-03-08T01:24:49;101483.72;;;8.14
75431;BMP280;64127;51.488;5.462;2024-03-08T01:27:22;101478.38;;;8.13
75431;BMP280;64127;51.488;5.462;2024-03-08T01:29:54;101481.00;;;8.13
75431;BMP280;64127;51.488;5.462;2024-03-08T01:32:26;101472.88;;;8.08
75431;BMP280;64127;51.488;5.462;2024-03-08T01:34:58;101468.19;;;8.03
75431;BMP280;64127;51.488;5.462;2024-03-08T01:37:30;101475.59;;;8.10
75431;BMP280;64127;51.488;5.462;2024-03-08T01:40:02;101463.34;;;8.09
75431;BMP280;64127;51.488;5.462;2024-03-08T01:42:35;101468.56;;;8.09
75431;BMP280;64127;51.488;5.462;2024-03-08T01:45:09;101435.31;;;7.92
75431;BMP280;64127;51.488;5.462;2024-03-08T01:47:42;101464.19;;;8.08
75431;BMP280;64127;51.488;5.462;2024-03-08T01:50:15;101461.34;;;8.05
75431;BMP280;64127;51.488;5.462;2024-03-08T01:52:48;101456.84;;;8.02
75431;BMP280;64127;51.488;5.462;2024-03-08T01:55:20;101442.81;;;8.00
75431;BMP280;64127;51.488;5.462;2024-03-08T01:57:53;101448.53;;;7.95
75431;BMP280;64127;51.488;5.462;2024-03-08T02:00:26;101442.22;;;7.91
75431;BMP280;64127;51.488;5.462;2024-03-08T02:02:58;101441.38;;;7.91
75431;BMP280;64127;51.488;5.462;2024-03-08T02:05:31;101417.53;;;7.72
75431;BMP280;64127;51.488;5.462;2024-03-08T02:08:06;101414.69;;;7.67
75431;BMP280;64127;51.488;5.462;2024-03-08T02:10:46;101433.97;;;7.84
75431;BMP280;64127;51.488;5.462;2024-03-08T02:13:18;101442.59;;;7.83
75431;BMP280;64127;51.488;5.462;2024-03-08T02:15:57;101437.00;;;7.77
75431;BMP280;64127;51.488;5.462;2024-03-08T02:18:31;101440.41;;;7.76
75431;BMP280;64127;51.488;5.462;2024-03-08T02:21:07;101435.19;;;7.76
75431;BMP280;64127;51.488;5.462;2024-03-08T02:23:40;101419.16;;;7.70
75431;BMP280;64127;51.488;5.462;2024-03-08T02:26:13;101427.25;;;7.74
75431;BMP280;64127;51.488;5.462;2024-03-08T02:28:46;101418.09;;;7.66
75431;BMP280;64127;51.488;5.462;2024-03-08T02:31:18;101375.94;;;7.45
75431;BMP280;64127;51.488;5.462;2024-03-08T02:33:50;101417.00;;;7.62
75431;BMP280;64127;51.488;5.462;2024-03-08T02:36:23;101415.28;;;7.63
75431;BMP280;64127;51.488;5.462;2024-03-08T02:38:55;101414.47;;;7.64
75431;BMP280;64127;51.488;5.462;2024-03-08T02:41:28;101403.75;;;7.59
75431;BMP280;64127;51.488;5.462;2024-03-08T02:44:00;101401.97;;;7.58
75431;BMP280;64127;51.488;5.462;2024-03-08T02:46:32;101406.38;;;7.59
75431;BMP280;64127;51.488;5.462;2024-03-08T02:49:04;101367.75;;;7.39
75431;BMP280;64127;51.488;5.462;2024-03-08T02:51:38;101399.16;;;7.55
75431;BMP280;64127;51.488;5.462;2024-03-08T02:54:10;101397.34;;;7.54
75431;BMP280;64127;51.488;5.462;2024-03-08T02:56:43;101387.72;;;7.53
75431;BMP280;64127;51.488;5.462;2024-03-08T02:59:15;101385.09;;;7.53
75431;BMP280;64127;51.488;5.462;2024-03-08T03:01:49;101383.34;;;7.52
75431;BMP280;64127;51.488;5.462;2024-03-08T03:04:21;101373.63;;;7.50
75431;BMP280;64127;51.488;5.462;2024-03-08T03:06:53;101375.22;;;7.48
75431;BMP280;64127;51.488;5.462;2024-03-08T03:09:26;101373.22;;;7.44
75431;BMP280;64127;51.488;5.462;2024-03-08T03:12:00;101371.44;;;7.43
75431;BMP280;64127;51.488;5.462;2024-03-08T03:14:32;101363.50;;;7.41
75431;BMP280;64127;51.488;5.462;2024-03-08T03:17:06;101360.00;;;7.41
75431;BMP280;64127;51.488;5.462;2024-03-08T03:19:41;101354.78;;;7.41
75431;BMP280;64127;51.488;5.462;2024-03-08T03:22:14;101359.50;;;7.33
75431;BMP280;64127;51.488;5.462;2024-03-08T03:24:47;101321.91;;;7.15
75431;BMP280;64127;51.488;5.462;2024-03-08T03:27:19;101355.75;;;7.28
75431;BMP280;64127;51.488;5.462;2024-03-08T03:29:51;101315.41;;;7.08
75431;BMP280;64127;51.488;5.462;2024-03-08T03:32:24;101352.53;;;7.32
75431;BMP280;64127;51.488;5.462;2024-03-08T03:34:56;101349.63;;;7.28
75431;BMP280;64127;51.488;5.462;2024-03-08T03:37:29;101350.16;;;7.22
75431;BMP280;64127;51.488;5.462;2024-03-08T03:40:01;101344.94;;;7.22
75431;BMP280;64127;51.488;5.462;2024-03-08T03:42:34;101344.75;;;7.19
75431;BMP280;64127;51.488;5.462;2024-03-08T03:45:06;101337.72;;;7.18
75431;BMP280;64127;51.488;5.462;2024-03-08T03:47:39;101340.94;;;7.14
75431;BMP280;64127;51.488;5.462;2024-03-08T03:50:11;101333.25;;;7.16
75431;BMP280;64127;51.488;5.462;2024-03-08T03:52:43;101332.53;;;7.18
75431;BMP280;64127;51.488;5.462;2024-03-08T03:55:15;101330.72;;;7.17
75431;BMP280;64127;51.488;5.462;2024-03-08T03:57:48;101332.34;;;7.15
75431;BMP280;64127;51.488;5.462;2024-03-08T04:00:20;101303.50;;;6.99
75431;BMP280;64127;51.488;5.462;2024-03-08T04:02:52;101328.03;;;7.16
75431;BMP280;64127;51.488;5.462;2024-03-08T04:05:25;101314.69;;;7.11
75431;BMP280;64127;51.488;5.462;2024-03-08T04:07:58;101323.50;;;7.13
75431;BMP280;64127;51.488;5.462;2024-03-08T04:10:30;101329.44;;;7.10
75431;BMP280;64127;51.488;5.462;2024-03-08T04:13:02;101317.13;;;7.08
75431;BMP280;64127;51.488;5.462;2024-03-08T04:15:35;101313.41;;;7.04
75431;BMP280;64127;51.488;5.462;2024-03-08T04:18:09;101308.09;;;7.03
75431;BMP280;64127;51.488;5.462;2024-03-08T04:20:42;101316.09;;;7.06
75431;BMP280;64127;51.488;5.462;2024-03-08T04:23:15;101308.09;;;7.03
75431;BMP280;64127;51.488;5.462;2024-03-08T04:25:48;101312.31;;;7.01
75431;BMP280;64127;51.488;5.462;2024-03-08T04:28:20;101307.91;;;7.00
75431;BMP280;64127;51.488;5.462;2024-03-08T04:30:53;101304.50;;;7.01
75431;BMP280;64127;51.488;5.462;2024-03-08T04:33:27;101306.09;;;6.99
75431;BMP280;64127;51.488;5.462;2024-03-08T04:36:00;101291.72;;;6.91
75431;BMP280;64127;51.488;5.462;2024-03-08T04:38:32;101307.44;;;6.92
75431;BMP280;64127;51.488;5.462;2024-03-08T04:41:04;101308.94;;;6.89
75431;BMP280;64127;51.488;5.462;2024-03-08T04:43:36;101297.53;;;6.87
75431;BMP280;64127;51.488;5.462;2024-03-08T04:46:09;101295.72;;;6.86
75431;BMP280;64127;51.488;5.462;2024-03-08T04:48:41;101298.31;;;6.86
75431;BMP280;64127;51.488;5.462;2024-03-08T04:51:14;101267.03;;;6.71
75431;BMP280;64127;51.488;5.462;2024-03-08T04:53:47;101289.63;;;6.85
75431;BMP280;64127;51.488;5.462;2024-03-08T04:56:20;101260.22;;;6.73
75431;BMP280;64127;51.488;5.462;2024-03-08T04:58:53;101251.50;;;6.73
75431;BMP280;64127;51.488;5.462;2024-03-08T05:01:25;101287.22;;;6.75
75431;BMP280;64127;51.488;5.462;2024-03-08T05:03:57;101283.53;;;6.72
75431;BMP280;64127;51.488;5.462;2024-03-08T05:06:36;101272.44;;;6.61
75431;BMP280;64127;51.488;5.462;2024-03-08T05:09:08;101278.06;;;6.67
75431;BMP280;64127;51.488;5.462;2024-03-08T05:11:51;101279.84;;;6.68
75431;BMP280;64127;51.488;5.462;2024-03-08T05:14:23;101280.06;;;6.71
75431;BMP280;64127;51.488;5.462;2024-03-08T05:16:57;101244.94;;;6.51
75431;BMP280;64127;51.488;5.462;2024-03-08T05:19:29;101275.44;;;6.67
75431;BMP280;64127;51.488;5.462;2024-03-08T05:22:06;101273.44;;;6.63
75431;BMP280;64127;51.488;5.462;2024-03-08T05:24:38;101270.75;;;6.61
75431;BMP280;64127;51.488;5.462;2024-03-08T05:27:10;101260.97;;;6.57
75431;BMP280;64127;51.488;5.462;2024-03-08T05:29:42;101269.94;;;6.62
75431;BMP280;64127;51.488;5.462;2024-03-08T05:32:15;101269.94;;;6.62
75431;BMP280;64127;51.488;5.462;2024-03-08T05:34:47;101267.88;;;6.57
75431;BMP280;64127;51.488;5.462;2024-03-08T05:37:19;101266.97;;;6.56
75431;BMP280;64127;51.488;5.462;2024-03-08T05:39:52;101262.56;;;6.55
75431;BMP280;64127;51.488;5.462;2024-03-08T05:42:26;101265.94;;;6.54
75431;BMP280;64127;51.488;5.462;2024-03-08T05:45:00;101265.94;;;6.54
75431;BMP280;64127;51.488;5.462;2024-03-08T05:47:32;101256.16;;;6.50
75431;BMP280;64127;51.488;5.462;2024-03-08T05:50:06;101252.34;;;6.45
75431;BMP280;64127;51.488;5.462;2024-03-08T05:52:42;101254.75;;;6.42
75431;BMP280;64127;51.488;5.462;2024-03-08T05:55:15;101246.84;;;6.41
75431;BMP280;64127;51.488;5.462;2024-03-08T05:57:47;101247.75;;;6.41
75431;BMP280;64127;51.488;5.462;2024-03-08T06:00:20;101254.75;;;6.42
75431;BMP280;64127;51.488;5.462;2024-03-08T06:02:54;101244.16;;;6.39
75431;BMP280;64127;51.488;5.462;2024-03-08T06:05:28;101250.94;;;6.37
75431;BMP280;64127;51.488;5.462;2024-03-08T06:08:00;101237.94;;;6.37
75431;BMP280;64127;51.488;5.462;2024-03-08T06:10:32;101250.28;;;6.40
75431;BMP280;64127;51.488;5.462;2024-03-08T06:13:05;101242.47;;;6.40
75431;BMP280;64127;51.488;5.462;2024-03-08T06:15:37;101237.34;;;6.41
75431;BMP280;64127;51.488;5.462;2024-03-08T06:18:09;101239.75;;;6.38
75431;BMP280;64127;51.488;5.462;2024-03-08T06:20:43;101230.78;;;6.33
75431;BMP280;64127;51.488;5.462;2024-03-08T06:23:16;101197.56;;;6.16
75431;BMP280;64127;51.488;5.462;2024-03-08T06:25:50;101221.16;;;6.32
75431;BMP280;64127;51.488;5.462;2024-03-08T06:28:22;101220.25;;;6.32
75431;BMP280;64127;51.488;5.462;2024-03-08T06:30:54;101220.78;;;6.26
75431;BMP280;64127;51.488;5.462;2024-03-08T06:33:27;101218.16;;;6.26
75431;BMP280;64127;51.488;5.462;2024-03-08T06:35:59;101222.34;;;6.24
75431;BMP280;64127;51.488;5.462;2024-03-08T06:38:32;101186.56;;;6.07
75431;BMP280;64127;51.488;5.462;2024-03-08T06:41:04;101215.38;;;6.23
75431;BMP280;64127;51.488;5.462;2024-03-08T06:43:36;101217.88;;;6.22
75431;BMP280;64127;51.488;5.462;2024-03-08T06:46:08;101207.47;;;6.22
75431;BMP280;64127;51.488;5.462;2024-03-08T06:48:41;101220.66;;;6.25
75431;BMP280;64127;51.488;5.462;2024-03-08T06:51:14;101205.16;;;6.26
75431;BMP280;64127;51.488;5.462;2024-03-08T06:53:47;101208.94;;;6.31
75431;BMP280;64127;51.488;5.462;2024-03-08T06:56:21;101203.72;;;6.31
75431;BMP280;64127;51.488;5.462;2024-03-08T06:58:55;101213.91;;;6.41
75431;BMP280;64127;51.488;5.462;2024-03-08T07:01:27;101215.13;;;6.46
75431;BMP280;64127;51.488;5.462;2024-03-08T07:04:00;101219.09;;;6.54
75431;BMP280;64127;51.488;5.462;2024-03-08T07:06:34;101214.09;;;6.57
75431;BMP280;64127;51.488;5.462;2024-03-08T07:09:06;101208.44;;;6.64
75431;BMP280;64127;51.488;5.462;2024-03-08T07:11:38;101210.38;;;6.67
75431;BMP280;64127;51.488;5.462;2024-03-08T07:14:13;101204.25;;;6.67
75431;BMP280;64127;51.488;5.462;2024-03-08T07:16:47;101199.53;;;6.74
75431;BMP280;64127;51.488;5.462;2024-03-08T07:19:19;101173.09;;;6.68
75431;BMP280;64127;51.488;5.462;2024-03-08T07:21:53;101203.88;;;6.88
75431;BMP280;64127;51.488;5.462;2024-03-08T07:24:27;101207.75;;;6.95
75431;BMP280;64127;51.488;5.462;2024-03-08T07:27:18;101204.72;;;7.02
75431;BMP280;64127;51.488;5.462;2024-03-08T07:29:50;101199.16;;;7.10
75431;BMP280;64127;51.488;5.462;2024-03-08T07:32:22;101202.41;;;7.21
75431;BMP280;64127;51.488;5.462;2024-03-08T07:34:56;101199.38;;;7.28
75431;BMP280;64127;51.488;5.462;2024-03-08T07:37:28;101165.03;;;7.21
75431;BMP280;64127;51.488;5.462;2024-03-08T07:40:00;101192.66;;;7.46
75431;BMP280;64127;51.488;5.462;2024-03-08T07:42:32;101186.94;;;7.53
75431;BMP280;64127;51.488;5.462;2024-03-08T07:45:05;101180.94;;;7.69
75431;BMP280;64127;51.488;5.462;2024-03-08T07:47:40;101174.47;;;7.77
75431;BMP280;64127;51.488;5.462;2024-03-08T07:50:12;101176.94;;;7.90
75431;BMP280;64127;51.488;5.462;2024-03-08T07:52:48;101172.19;;;7.98
75431;BMP280;64127;51.488;5.462;2024-03-08T07:55:20;101170.88;;;8.06
75431;BMP280;64127;51.488;5.462;2024-03-08T07:57:56;101166.16;;;8.15
75431;BMP280;64127;51.488;5.462;2024-03-08T08:00:32;101156.97;;;8.22
75431;BMP280;64127;51.488;5.462;2024-03-08T08:03:05;101160.03;;;8.29
75431;BMP280;64127;51.488;5.462;2024-03-08T08:05:37;101154.59;;;8.41
75431;BMP280;64127;51.488;5.462;2024-03-08T08:08:10;101151.50;;;8.48
75431;BMP280;64127;51.488;5.462;2024-03-08T08:10:43;101142.28;;;8.54
75431;BMP280;64127;51.488;5.462;2024-03-08T08:13:15;101141.78;;;8.61
75431;BMP280;64127;51.488;5.462;2024-03-08T08:15:48;101142.28;;;8.71
75431;BMP280;64127;51.488;5.462;2024-03-08T08:18:20;101135.59;;;8.76
75431;BMP280;64127;51.488;5.462;2024-03-08T08:20:56;101122.69;;;8.79
75431;BMP280;64127;51.488;5.462;2024-03-08T08:23:29;101135.88;;;8.98
75431;BMP280;64127;51.488;5.462;2024-03-08T08:26:04;101121.19;;;9.00
75431;BMP280;64127;51.488;5.462;2024-03-08T08:28:37;101117.09;;;9.05
75431;BMP280;64127;51.488;5.462;2024-03-08T08:31:10;101119.94;;;9.09
75431;BMP280;64127;51.488;5.462;2024-03-08T08:33:42;101117.28;;;9.26
75431;BMP280;64127;51.488;5.462;2024-03-08T08:36:18;101115.16;;;9.35
75431;BMP280;64127;51.488;5.462;2024-03-08T08:38:50;101111.56;;;9.50
75431;BMP280;64127;51.488;5.462;2024-03-08T08:41:22;101108.47;;;9.59
75431;BMP280;64127;51.488;5.462;2024-03-08T08:43:54;101109.84;;;9.68
75431;BMP280;64127;51.488;5.462;2024-03-08T08:46:45;101099.06;;;9.80
75431;BMP280;64127;51.488;5.462;2024-03-08T08:49:17;101108.94;;;9.86
75431;BMP280;64127;51.488;5.462;2024-03-08T08:51:53;101098.41;;;9.84
75431;BMP280;64127;51.488;5.462;2024-03-08T08:54:29;101072.59;;;9.74
75431;BMP280;64127;51.488;5.462;2024-03-08T08:57:03;101092.84;;;9.96
75431;BMP280;64127;51.488;5.462;2024-03-08T08:59:39;101091.63;;;10.07
75431;BMP280;64127;51.488;5.462;2024-03-08T09:02:11;101091.44;;;10.20
75431;BMP280;64127;51.488;5.462;2024-03-08T09:04:48;101050.84;;;10.12
75431;BMP280;64127;51.488;5.462;2024-03-08T09:07:20;101077.28;;;10.36
75431;BMP280;64127;51.488;5.462;2024-03-08T09:09:52;101075.94;;;10.44
75431;BMP280;64127;51.488;5.462;2024-03-08T09:12:28;101060.13;;;10.61
75431;BMP280;64127;51.488;5.462;2024-03-08T09:15:01;101063.97;;;10.69
75431;BMP280;64127;51.488;5.462;2024-03-08T09:17:34;101064.53;;;10.82
75431;BMP280;64127;51.488;5.462;2024-03-08T09:20:10;101052.63;;;10.90
75431;BMP280;64127;51.488;5.462;2024-03-08T09:22:46;101045.03;;;10.96
75431;BMP280;64127;51.488;5.462;2024-03-08T09:25:18;101039.41;;;11.07
75431;BMP280;64127;51.488;5.462;2024-03-08T09:27:51;101041.66;;;11.19
75431;BMP280;64127;51.488;5.462;2024-03-08T09:30:23;101039.47;;;11.30
75431;BMP280;64127;51.488;5.462;2024-03-08T09:32:56;101001.97;;;11.11
75431;BMP280;64127;51.488;5.462;2024-03-08T09:35:30;101023.84;;;11.33
75431;BMP280;64127;51.488;5.462;2024-03-08T09:38:02;101025.47;;;11.51
75431;BMP280;64127;51.488;5.462;2024-03-08T09:40:36;101017.72;;;11.54
75431;BMP280;64127;51.488;5.462;2024-03-08T09:43:09;101001.50;;;11.64
75431;BMP280;64127;51.488;5.462;2024-03-08T09:45:45;100966.78;;;11.49
75431;BMP280;64127;51.488;5.462;2024-03-08T09:48:22;100988.69;;;11.72
75431;BMP280;64127;51.488;5.462;2024-03-08T09:50:55;100979.63;;;11.86
75431;BMP280;64127;51.488;5.462;2024-03-08T09:53:28;100981.84;;;11.98
75431;BMP280;64127;51.488;5.462;2024-03-08T09:56:01;100939.69;;;11.95
75431;BMP280;64127;51.488;5.462;2024-03-08T09:58:36;100955.66;;;12.25
75431;BMP280;64127;51.488;5.462;2024-03-08T10:01:14;100965.28;;;12.24
75431;BMP280;64127;51.488;5.462;2024-03-08T10:03:47;100952.06;;;12.23
75431;BMP280;64127;51.488;5.462;2024-03-08T10:06:23;100945.16;;;12.25
75431;BMP280;64127;51.488;5.462;2024-03-08T10:08:57;100947.06;;;12.29
75431;BMP280;64127;51.488;5.462;2024-03-08T10:11:30;100936.69;;;12.33
75431;BMP280;64127;51.488;5.462;2024-03-08T10:14:02;100935.25;;;12.41
75431;BMP280;64127;51.488;5.462;2024-03-08T10:16:34;100930.34;;;12.52
75431;BMP280;64127;51.488;5.462;2024-03-08T10:19:07;100936.91;;;12.64
75431;BMP280;64127;51.488;5.462;2024-03-08T10:21:52;100920.56;;;12.73
75431;BMP280;64127;51.488;5.462;2024-03-08T10:24:28;100931.34;;;12.81
75431;BMP280;64127;51.488;5.462;2024-03-08T10:27:02;100929.50;;;12.78
75431;BMP280;64127;51.488;5.462;2024-03-08T10:29:36;100913.78;;;12.80
75431;BMP280;64127;51.488;5.462;2024-03-08T10:32:10;100909.59;;;12.86
75431;BMP280;64127;51.488;5.462;2024-03-08T10:34:44;100905.19;;;12.85
75431;BMP280;64127;51.488;5.462;2024-03-08T10:37:22;100906.13;;;12.87
75431;BMP280;64127;51.488;5.462;2024-03-08T10:40:04;100893.09;;;12.90
75431;BMP280;64127;51.488;5.462;2024-03-08T10:45:39;100884.28;;;13.15
75431;BMP280;64127;51.488;5.462;2024-03-08T10:48:31;100880.09;;;13.22
75431;BMP280;64127;51.488;5.462;2024-03-08T10:51:11;100853.94;;;13.28
75431;BMP280;64127;51.488;5.462;2024-03-08T10:53:46;100867.22;;;13.32
75431;BMP280;64127;51.488;5.462;2024-03-08T10:56:20;100866.69;;;13.44
75431;BMP280;64127;51.488;5.462;2024-03-08T10:58:55;100860.53;;;13.43
75431;BMP280;64127;51.488;5.462;2024-03-08T11:01:28;100867.69;;;13.47
75431;BMP280;64127;51.488;5.462;2024-03-08T11:04:04;100853.84;;;13.54
75431;BMP280;64127;51.488;5.462;2024-03-08T11:09:28;100849.13;;;13.73
75431;BMP280;64127;51.488;5.462;2024-03-08T11:14:54;100838.16;;;13.89
75431;BMP280;64127;51.488;5.462;2024-03-08T11:17:46;100827.91;;;13.99
75431;BMP280;64127;51.488;5.462;2024-03-08T11:20:20;100819.09;;;13.99
75431;BMP280;64127;51.488;5.462;2024-03-08T11:23:03;100822.59;;;13.98
75431;BMP280;64127;51.488;5.462;2024-03-08T11:25:41;100820.22;;;14.07
75431;BMP280;64127;51.488;5.462;2024-03-08T11:28:17;100816.06;;;14.16
75431;BMP280;64127;51.488;5.462;2024-03-08T11:33:35;100804.06;;;14.29
75431;BMP280;64127;51.488;5.462;2024-03-08T11:36:11;100800.47;;;14.26
75431;BMP280;64127;51.488;5.462;2024-03-08T11:38:44;100776.59;;;14.19
75431;BMP280;64127;51.488;5.462;2024-03-08T11:41:22;100800.16;;;14.46
75431;BMP280;64127;51.488;5.462;2024-03-08T11:44:05;100791.47;;;14.50
75431;BMP280;64127;51.488;5.462;2024-03-08T11:46:38;100792.31;;;14.49
75431;BMP280;64127;51.488;5.462;2024-03-08T11:49:14;100776.47;;;14.48
75431;BMP280;64127;51.488;5.462;2024-03-08T11:51:51;100761.06;;;14.32
75431;BMP280;64127;51.488;5.462;2024-03-08T11:54:24;100788.88;;;14.52
75431;BMP280;64127;51.488;5.462;2024-03-08T11:56:59;100754.47;;;14.47
75431;BMP280;64127;51.488;5.462;2024-03-08T11:59:32;100772.66;;;14.73
75431;BMP280;64127;51.488;5.462;2024-03-08T12:02:06;100781.81;;;14.90
75431;BMP280;64127;51.488;5.462;2024-03-08T12:04:38;100780.94;;;14.89
75431;BMP280;64127;51.488;5.462;2024-03-08T12:07:10;100749.88;;;14.78
75431;BMP280;64127;51.488;5.462;2024-03-08T12:12:53;100764.88;;;14.79
75431;BMP280;64127;51.488;5.462;2024-03-08T12:15:28;100750.66;;;14.73
75431;BMP280;64127;51.488;5.462;2024-03-08T12:18:01;100754.34;;;14.80
75431;BMP280;64127;51.488;5.462;2024-03-08T12:20:33;100745.44;;;14.75
75431;BMP280;64127;51.488;5.462;2024-03-08T12:23:05;100740.16;;;14.75
75431;BMP280;64127;51.488;5.462;2024-03-08T12:25:37;100748.25;;;14.83
75431;BMP280;64127;51.488;5.462;2024-03-08T12:28:12;100734.31;;;14.90
75431;BMP280;64127;51.488;5.462;2024-03-08T12:30:50;100728.34;;;14.98
75431;BMP280;64127;51.488;5.462;2024-03-08T12:33:28;100732.06;;;15.08
75431;BMP280;64127;51.488;5.462;2024-03-08T12:36:00;100716.56;;;15.23
75431;BMP280;64127;51.488;5.462;2024-03-08T12:38:32;100703.47;;;15.29
75431;BMP280;64127;51.488;5.462;2024-03-08T12:41:04;100710.75;;;15.42
75431;BMP280;64127;51.488;5.462;2024-03-08T12:43:36;100707.16;;;15.37
75431;BMP280;64127;51.488;5.462;2024-03-08T12:46:09;100700.78;;;15.28
75431;BMP280;64127;51.488;5.462;2024-03-08T12:48:41;100701.78;;;15.33
75431;BMP280;64127;51.488;5.462;2024-03-08T12:51:20;100693.22;;;15.46
75431;BMP280;64127;51.488;5.462;2024-03-08T12:53:53;100681.00;;;15.49
75431;BMP280;64127;51.488;5.462;2024-03-08T12:56:32;100697.88;;;15.57
75431;BMP280;64127;51.488;5.462;2024-03-08T12:59:08;100668.53;;;15.45
75431;BMP280;64127;51.488;5.462;2024-03-08T13:01:40;100690.22;;;15.72
75431;BMP280;64127;51.488;5.462;2024-03-08T13:04:12;100685.16;;;15.86
75431;BMP280;64127;51.488;5.462;2024-03-08T13:06:45;100666.47;;;15.74
75431;BMP280;64127;51.488;5.462;2024-03-08T13:09:21;100669.13;;;15.76
75431;BMP280;64127;51.488;5.462;2024-03-08T13:11:54;100665.66;;;15.80
75431;BMP280;64127;51.488;5.462;2024-03-08T13:14:27;100651.69;;;15.85
75431;BMP280;64127;51.488;5.462;2024-03-08T13:16:59;100661.44;;;15.91
75431;BMP280;64127;51.488;5.462;2024-03-08T13:19:31;100634.00;;;15.83
75431;BMP280;64127;51.488;5.462;2024-03-08T13:22:04;100657.97;;;15.93
75431;BMP280;64127;51.488;5.462;2024-03-08T13:24:37;100650.03;;;15.92
75431;BMP280;64127;51.488;5.462;2024-03-08T13:27:09;100635.72;;;15.81
75431;BMP280;64127;51.488;5.462;2024-03-08T13:29:57;100655.34;;;15.95
75431;BMP280;64127;51.488;5.462;2024-03-08T13:32:29;100647.38;;;15.92
75431;BMP280;64127;51.488;5.462;2024-03-08T13:35:03;100634.34;;;16.04
75431;BMP280;64127;51.488;5.462;2024-03-08T13:37:36;100624.78;;;16.12
75431;BMP280;64127;51.488;5.462;2024-03-08T13:40:10;100622.22;;;16.18
75431;BMP280;64127;51.488;5.462;2024-03-08T13:42:51;100613.50;;;16.25
75431;BMP280;64127;51.488;5.462;2024-03-08T13:45:23;100611.78;;;16.30
75431;BMP280;64127;51.488;5.462;2024-03-08T13:47:56;100600.38;;;16.33
75431;BMP280;64127;51.488;5.462;2024-03-08T13:50:28;100592.56;;;16.40
75431;BMP280;64127;51.488;5.462;2024-03-08T13:53:02;100596.00;;;16.33
75431;BMP280;64127;51.488;5.462;2024-03-08T13:55:36;100595.22;;;16.42
75431;BMP280;64127;51.488;5.462;2024-03-08T13:58:08;100537.72;;;16.30
75431;BMP280;64127;51.488;5.462;2024-03-08T14:00:41;100580.59;;;16.69
75431;BMP280;64127;51.488;5.462;2024-03-08T14:03:15;100566.41;;;16.64
75431;BMP280;64127;51.488;5.462;2024-03-08T14:05:47;100546.72;;;16.44
75431;BMP280;64127;51.488;5.462;2024-03-08T14:08:19;100535.31;;;16.47
75431;BMP280;64127;51.488;5.462;2024-03-08T14:10:52;100556.69;;;16.62
75431;BMP280;64127;51.488;5.462;2024-03-08T14:13:25;100555.78;;;16.61
75431;BMP280;64127;51.488;5.462;2024-03-08T14:15:59;100562.72;;;16.55
75431;BMP280;64127;51.488;5.462;2024-03-08T14:18:31;100556.47;;;16.48
75431;BMP280;64127;51.488;5.462;2024-03-08T14:21:05;100538.78;;;16.43
75431;BMP280;64127;51.488;5.462;2024-03-08T14:23:43;100522.13;;;16.51
75431;BMP280;64127;51.488;5.462;2024-03-08T14:26:16;100531.09;;;16.62
75431;BMP280;64127;51.488;5.462;2024-03-08T14:28:48;100530.34;;;16.76
75431;BMP280;64127;51.488;5.462;2024-03-08T14:31:24;100516.25;;;16.78
75431;BMP280;64127;51.488;5.462;2024-03-08T14:33:58;100513.69;;;16.86
75431;BMP280;64127;51.488;5.462;2024-03-08T14:36:31;100511.00;;;16.80
75431;BMP280;64127;51.488;5.462;2024-03-08T14:39:03;100499.53;;;16.81
75431;BMP280;64127;51.488;5.462;2024-03-08T14:41:35;100508.44;;;16.89
75431;BMP280;64127;51.488;5.462;2024-03-08T14:44:08;100494.47;;;17.02
75431;BMP280;64127;51.488;5.462;2024-03-08T14:46:41;100499.88;;;17.15
75431;BMP280;64127;51.488;5.462;2024-03-08T14:49:15;100481.63;;;17.53
75431;BMP280;64127;51.488;5.462;2024-03-08T14:51:47;100496.41;;;17.24
75431;BMP280;64127;51.488;5.462;2024-03-08T14:54:19;100485.66;;;17.09